createdAt,value
2023-05-24T00:00:02.616Z,47.87
2023-05-24T00:01:02.596Z,47.88
2023-05-24T00:02:02.569Z,47.89
2023-05-24T00:03:02.609Z,47.86
2023-05-24T00:04:02.641Z,47.89
2023-05-24T00:05:02.521Z,47.87
2023-05-24T00:06:02.450Z,47.88
2023-05-24T00:07:02.395Z,47.85
2023-05-24T00:08:02.390Z,47.88
2023-05-24T00:09:02.371Z,47.86
2023-05-24T00:10:02.386Z,47.87
2023-05-24T00:11:02.423Z,47.85
2023-05-24T00:12:02.443Z,47.83
2023-05-24T00:13:02.429Z,47.84
2023-05-24T00:14:02.450Z,47.87
2023-05-24T00:15:02.440Z,47.83
2023-05-24T00:16:02.452Z,47.87
2023-05-24T00:17:02.472Z,47.84
2023-05-24T00:18:02.492Z,47.91
2023-05-24T00:19:02.476Z,47.84
2023-05-24T00:20:03.829Z,47.87
2023-05-24T00:21:02.733Z,47.84
2023-05-24T00:22:02.758Z,47.84
2023-05-24T00:23:02.752Z,47.87
2023-05-24T00:24:02.846Z,47.87
2023-05-24T00:25:02.749Z,47.85
2023-05-24T00:26:02.774Z,47.86
2023-05-24T00:27:02.831Z,47.85
2023-05-24T00:28:02.797Z,47.89
2023-05-24T00:29:02.768Z,47.86
2023-05-24T00:30:02.771Z,47.85
2023-05-24T00:31:02.766Z,47.84
2023-05-24T00:32:02.836Z,47.84
2023-05-24T00:33:02.787Z,47.85
2023-05-24T00:34:02.792Z,47.84
2023-05-24T00:35:03.749Z,47.85
2023-05-24T00:36:02.821Z,47.87
2023-05-24T00:37:02.763Z,47.92
2023-05-24T00:38:02.811Z,47.85
2023-05-24T00:39:02.797Z,47.88
2023-05-24T00:40:02.854Z,47.83
2023-05-24T00:41:02.817Z,47.84
2023-05-24T00:42:02.891Z,47.84
2023-05-24T00:43:02.836Z,47.84
2023-05-24T00:44:02.851Z,47.85
2023-05-24T00:45:02.854Z,47.84
2023-05-24T00:46:02.893Z,47.86
2023-05-24T00:47:02.843Z,47.81
2023-05-24T00:48:03.163Z,47.82
2023-05-24T00:49:02.886Z,47.82
2023-05-24T00:50:02.974Z,47.85
2023-05-24T00:51:03.009Z,47.84
2023-05-24T00:52:02.941Z,47.89
2023-05-24T00:53:02.915Z,47.89
2023-05-24T00:54:02.936Z,47.87
2023-05-24T00:55:02.934Z,47.88
2023-05-24T00:56:03.139Z,47.86
2023-05-24T00:57:03.024Z,47.83
2023-05-24T00:58:02.977Z,47.85
2023-05-24T00:59:03.007Z,47.83
2023-05-24T01:00:03.036Z,47.86
2023-05-24T01:01:03.093Z,47.85
2023-05-24T01:02:03.212Z,47.82
2023-05-24T01:03:03.129Z,47.85
2023-05-24T01:04:03.129Z,47.86
2023-05-24T01:05:03.160Z,47.83
2023-05-24T01:06:03.105Z,47.82
2023-05-24T01:07:03.112Z,47.86
2023-05-24T01:08:03.123Z,47.87
2023-05-24T01:09:03.132Z,47.84
2023-05-24T01:10:03.131Z,47.92
2023-05-24T01:11:03.181Z,47.91
2023-05-24T01:12:03.143Z,47.90
2023-05-24T01:13:03.173Z,47.87
2023-05-24T01:14:03.244Z,47.83
2023-05-24T01:15:03.187Z,47.86
2023-05-24T01:16:03.227Z,47.91
2023-05-24T01:17:03.203Z,47.84
2023-05-24T01:18:03.220Z,47.88
2023-05-24T01:19:03.236Z,47.94
2023-05-24T01:20:03.273Z,47.91
2023-05-24T01:21:03.245Z,47.89
2023-05-24T01:22:03.262Z,47.92
2023-05-24T01:23:03.262Z,48.02
2023-05-24T01:24:03.285Z,47.97
2023-05-24T01:25:03.274Z,47.92
2023-05-24T01:26:03.301Z,47.95
2023-05-24T01:27:03.312Z,47.94
2023-05-24T01:28:03.340Z,47.97
2023-05-24T01:29:03.323Z,47.92
2023-05-24T01:30:03.364Z,48.02
2023-05-24T01:31:03.395Z,48.01
2023-05-24T01:32:03.384Z,48.00
2023-05-24T01:33:03.412Z,47.93
2023-05-24T01:34:03.389Z,47.93
2023-05-24T01:35:03.423Z,47.99
2023-05-24T01:36:03.404Z,48.08
2023-05-24T01:37:03.397Z,48.07
2023-05-24T01:38:03.407Z,47.98
2023-05-24T01:39:03.411Z,48.07
2023-05-24T01:40:03.413Z,48.03
2023-05-24T01:41:03.437Z,48.04
2023-05-24T01:42:03.429Z,48.12
2023-05-24T01:43:03.445Z,48.07
2023-05-24T01:44:03.454Z,48.08
2023-05-24T01:45:03.512Z,48.04
2023-05-24T01:46:03.672Z,48.06
2023-05-24T01:47:03.564Z,48.00
2023-05-24T01:48:03.570Z,47.99
2023-05-24T01:49:03.502Z,47.99
2023-05-24T01:50:03.488Z,48.02
2023-05-24T01:51:03.493Z,48.08
2023-05-24T01:52:03.571Z,48.04
2023-05-24T01:53:03.525Z,48.07
2023-05-24T01:54:03.534Z,48.06
2023-05-24T01:55:03.528Z,48.08
2023-05-24T01:56:03.544Z,48.09
2023-05-24T01:57:03.581Z,48.13
2023-05-24T01:58:03.546Z,48.10
2023-05-24T01:59:03.568Z,48.05
2023-05-24T02:00:03.570Z,47.99
2023-05-24T02:01:03.605Z,48.05
2023-05-24T02:02:03.688Z,48.13
2023-05-24T02:03:03.689Z,48.13
2023-05-24T02:04:03.595Z,48.12
2023-05-24T02:05:03.596Z,48.11
2023-05-24T02:06:03.689Z,48.14
2023-05-24T02:07:03.661Z,48.10
2023-05-24T02:08:03.652Z,48.10
2023-05-24T02:09:03.677Z,48.11
2023-05-24T02:10:03.709Z,48.07
2023-05-24T02:11:03.701Z,48.18
2023-05-24T02:12:03.722Z,48.07
2023-05-24T02:13:03.716Z,48.09
2023-05-24T02:14:03.753Z,48.11
2023-05-24T02:15:03.768Z,48.09
2023-05-24T02:16:03.789Z,48.08
2023-05-24T02:17:03.918Z,48.05
2023-05-24T02:18:03.888Z,48.12
2023-05-24T02:19:03.865Z,48.13
2023-05-24T02:20:03.978Z,48.13
2023-05-24T02:21:03.905Z,48.03
2023-05-24T02:22:03.950Z,48.09
2023-05-24T02:23:03.940Z,48.12
2023-05-24T02:24:03.974Z,48.17
2023-05-24T02:25:03.982Z,48.11
2023-05-24T02:26:04.022Z,48.11
2023-05-24T02:27:04.006Z,48.16
2023-05-24T02:28:04.033Z,48.13
2023-05-24T02:29:04.033Z,48.14
2023-05-24T02:30:04.052Z,48.13
2023-05-24T02:31:04.139Z,48.15
2023-05-24T02:32:04.211Z,48.14
2023-05-24T02:33:04.177Z,48.13
2023-05-24T02:34:04.155Z,48.13
2023-05-24T02:35:04.135Z,48.12
2023-05-24T02:36:04.160Z,48.13
2023-05-24T02:37:04.166Z,48.17
2023-05-24T02:38:04.172Z,48.13
2023-05-24T02:39:04.189Z,48.14
2023-05-24T02:40:04.152Z,48.08
2023-05-24T02:41:04.151Z,48.10
2023-05-24T02:42:04.149Z,48.16
2023-05-24T02:43:04.171Z,48.15
2023-05-24T02:44:04.690Z,48.15
2023-05-24T02:45:04.135Z,48.12
2023-05-24T02:46:04.170Z,48.13
2023-05-24T02:47:04.158Z,48.10
2023-05-24T02:48:04.234Z,48.14
2023-05-24T02:49:04.166Z,48.14
2023-05-24T02:50:04.137Z,48.15
2023-05-24T02:51:04.219Z,48.16
2023-05-24T02:52:04.144Z,48.14
2023-05-24T02:53:04.162Z,48.12
2023-05-24T02:54:04.125Z,48.10
2023-05-24T02:55:04.147Z,48.11
2023-05-24T02:56:04.125Z,48.13
2023-05-24T02:57:04.125Z,48.14
2023-05-24T02:58:04.102Z,48.12
2023-05-24T02:59:04.131Z,48.13
2023-05-24T03:00:04.113Z,48.15
2023-05-24T03:01:04.118Z,48.12
2023-05-24T03:02:04.189Z,48.14
2023-05-24T03:03:04.169Z,48.12
2023-05-24T03:04:04.815Z,48.13
2023-05-24T03:05:04.105Z,48.12
2023-05-24T03:06:04.098Z,48.13
2023-05-24T03:07:04.110Z,48.12
2023-05-24T03:08:04.096Z,48.13
2023-05-24T03:09:04.103Z,48.12
2023-05-24T03:10:04.094Z,48.13
2023-05-24T03:11:04.101Z,48.10
2023-05-24T03:12:04.105Z,48.10
2023-05-24T03:13:04.102Z,48.12
2023-05-24T03:14:04.093Z,48.11
2023-05-24T03:15:04.110Z,48.11
2023-05-24T03:16:04.177Z,48.12
2023-05-24T03:17:04.117Z,48.16
2023-05-24T03:18:04.139Z,48.09
2023-05-24T03:19:04.164Z,48.09
2023-05-24T03:20:04.111Z,48.15
2023-05-24T03:21:04.144Z,48.15
2023-05-24T03:22:04.129Z,48.13
2023-05-24T03:23:04.133Z,48.15
2023-05-24T03:24:04.700Z,48.12
2023-05-24T03:25:04.192Z,48.11
2023-05-24T03:26:04.127Z,48.11
2023-05-24T03:27:04.104Z,48.17
2023-05-24T03:28:04.130Z,48.11
2023-05-24T03:29:04.104Z,48.17
2023-05-24T03:30:04.125Z,48.16
2023-05-24T03:31:04.166Z,48.16
2023-05-24T03:32:04.142Z,48.21
2023-05-24T03:33:04.111Z,48.16
2023-05-24T03:34:04.105Z,48.16
2023-05-24T03:35:04.078Z,48.17
2023-05-24T03:36:04.113Z,48.15
2023-05-24T03:37:04.105Z,48.14
2023-05-24T03:38:04.107Z,48.18
2023-05-24T03:39:04.082Z,48.17
2023-05-24T03:40:04.090Z,48.18
2023-05-24T03:41:04.130Z,48.14
2023-05-24T03:42:04.067Z,48.18
2023-05-24T03:43:04.755Z,48.12
2023-05-24T03:44:04.086Z,48.13
2023-05-24T03:45:04.069Z,48.15
2023-05-24T03:46:04.084Z,48.17
2023-05-24T03:47:04.084Z,48.16
2023-05-24T03:48:04.099Z,48.17
2023-05-24T03:49:04.078Z,48.16
2023-05-24T03:50:04.150Z,48.15
2023-05-24T03:51:04.083Z,48.15
2023-05-24T03:52:04.060Z,48.15
2023-05-24T03:53:04.078Z,48.14
2023-05-24T03:54:04.061Z,48.15
2023-05-24T03:55:04.086Z,48.13
2023-05-24T03:56:04.069Z,48.15
2023-05-24T03:57:04.087Z,48.17
2023-05-24T03:58:04.056Z,48.15
2023-05-24T03:59:04.075Z,48.15
2023-05-24T04:00:04.068Z,48.14
2023-05-24T04:01:04.075Z,48.17
2023-05-24T04:02:04.079Z,48.17
2023-05-24T04:03:04.154Z,48.17
2023-05-24T04:04:04.099Z,48.18
2023-05-24T04:05:04.032Z,48.16
2023-05-24T04:06:04.026Z,48.15
2023-05-24T04:07:04.103Z,48.17
2023-05-24T04:08:04.022Z,48.18
2023-05-24T04:09:04.013Z,48.17
2023-05-24T04:10:04.012Z,48.16
2023-05-24T04:11:04.003Z,48.18
2023-05-24T04:12:04.035Z,48.15
2023-05-24T04:13:04.019Z,48.17
2023-05-24T04:14:04.716Z,48.17
2023-05-24T04:15:04.006Z,48.15
2023-05-24T04:16:03.988Z,48.18
2023-05-24T04:17:04.125Z,48.18
2023-05-24T04:18:04.031Z,48.17
2023-05-24T04:19:04.104Z,48.21
2023-05-24T04:20:04.016Z,48.19
2023-05-24T04:21:03.955Z,48.15
2023-05-24T04:22:03.964Z,48.16
2023-05-24T04:23:04.731Z,48.18
2023-05-24T04:24:03.957Z,48.18
2023-05-24T04:25:04.047Z,48.19
2023-05-24T04:26:03.971Z,48.14
2023-05-24T04:27:03.937Z,48.14
2023-05-24T04:28:04.000Z,48.18
2023-05-24T04:29:03.954Z,48.18
2023-05-24T04:30:03.953Z,48.14
2023-05-24T04:31:03.989Z,48.21
2023-05-24T04:32:04.010Z,48.19
2023-05-24T04:33:03.987Z,48.16
2023-05-24T04:34:03.941Z,48.16
2023-05-24T04:35:03.950Z,48.17
2023-05-24T04:36:03.956Z,48.15
2023-05-24T04:37:03.967Z,48.15
2023-05-24T04:38:03.956Z,48.17
2023-05-24T04:39:04.091Z,48.14
2023-05-24T04:40:03.959Z,48.16
2023-05-24T04:41:04.001Z,48.13
2023-05-24T04:42:03.974Z,48.15
2023-05-24T04:43:03.998Z,48.17
2023-05-24T04:44:04.031Z,48.16
2023-05-24T04:45:04.734Z,48.20
2023-05-24T04:46:04.034Z,48.17
2023-05-24T04:47:04.155Z,48.18
2023-05-24T04:48:03.998Z,48.15
2023-05-24T04:49:04.012Z,48.18
2023-05-24T04:50:03.983Z,48.19
2023-05-24T04:51:04.002Z,48.19
2023-05-24T04:52:04.004Z,48.22
2023-05-24T04:53:04.101Z,48.19
2023-05-24T04:54:04.053Z,48.16
2023-05-24T04:55:05.013Z,48.19
2023-05-24T04:56:04.053Z,48.17
2023-05-24T04:57:04.069Z,48.18
2023-05-24T04:58:03.957Z,48.13
2023-05-24T04:59:03.920Z,48.13
2023-05-24T05:00:03.905Z,48.14
2023-05-24T05:01:03.885Z,48.16
2023-05-24T05:02:03.958Z,48.08
2023-05-24T05:03:04.008Z,48.12
2023-05-24T05:04:03.896Z,48.13
2023-05-24T05:05:03.781Z,48.15
2023-05-24T05:06:03.785Z,48.13
2023-05-24T05:07:03.768Z,48.10
2023-05-24T05:08:03.755Z,48.11
2023-05-24T05:09:03.710Z,48.10
2023-05-24T05:10:03.706Z,48.07
2023-05-24T05:11:03.649Z,48.05
2023-05-24T05:12:03.651Z,48.04
2023-05-24T05:13:03.638Z,48.05
2023-05-24T05:14:03.671Z,48.04
2023-05-24T05:15:03.698Z,48.06
2023-05-24T05:16:03.810Z,48.01
2023-05-24T05:17:04.006Z,48.03
2023-05-24T05:18:03.809Z,47.94
2023-05-24T05:19:03.774Z,47.86
2023-05-24T05:20:03.823Z,48.14
2023-05-24T05:21:04.078Z,47.92
2023-05-24T05:22:03.820Z,47.86
2023-05-24T05:23:03.829Z,47.82
2023-05-24T05:24:03.871Z,47.72
2023-05-24T05:25:03.855Z,47.86
2023-05-24T05:26:03.853Z,48.53
2023-05-24T05:27:03.923Z,49.41
2023-05-24T05:28:03.895Z,48.87
2023-05-24T05:29:03.952Z,49.80
2023-05-24T05:30:03.968Z,49.84
2023-05-24T05:31:03.989Z,50.76
2023-05-24T05:32:04.041Z,49.95
2023-05-24T05:33:04.092Z,50.22
2023-05-24T05:34:04.057Z,49.95
2023-05-24T05:35:04.083Z,49.84
2023-05-24T05:36:04.164Z,50.24
2023-05-24T05:37:04.126Z,50.41
2023-05-24T05:38:04.199Z,50.41
2023-05-24T05:39:04.363Z,50.55
2023-05-24T05:40:04.465Z,50.63
2023-05-24T05:41:04.185Z,50.66
2023-05-24T05:42:04.197Z,50.69
2023-05-24T05:43:04.211Z,50.77
2023-05-24T05:44:04.219Z,50.88
2023-05-24T05:45:04.236Z,51.02
2023-05-24T05:46:04.292Z,51.23
2023-05-24T05:47:04.262Z,51.35
2023-05-24T05:48:04.371Z,51.65
2023-05-24T05:49:04.289Z,51.68
2023-05-24T05:50:04.290Z,51.95
2023-05-24T05:51:04.310Z,52.04
2023-05-24T05:52:04.340Z,52.27
2023-05-24T05:53:04.309Z,52.45
2023-05-24T05:54:04.264Z,52.59
2023-05-24T05:55:04.807Z,52.86
2023-05-24T05:56:04.228Z,52.78
2023-05-24T05:57:04.211Z,52.83
2023-05-24T05:58:04.187Z,53.02
2023-05-24T05:59:04.159Z,53.20
2023-05-24T06:00:04.188Z,53.28
2023-05-24T06:01:04.129Z,53.26
2023-05-24T06:02:04.207Z,53.33
2023-05-24T06:03:04.228Z,53.58
2023-05-24T06:04:04.117Z,53.45
2023-05-24T06:05:04.057Z,53.62
2023-05-24T06:06:04.023Z,53.67
2023-05-24T06:07:04.007Z,53.74
2023-05-24T06:08:04.023Z,53.87
2023-05-24T06:09:03.930Z,54.05
2023-05-24T06:10:06.158Z,54.21
2023-05-24T06:11:03.892Z,54.23
2023-05-24T06:12:03.880Z,54.27
2023-05-24T06:13:03.876Z,54.49
2023-05-24T06:14:03.969Z,54.51
2023-05-24T06:15:03.869Z,54.54
2023-05-24T06:16:03.923Z,54.53
2023-05-24T06:17:03.846Z,54.95
2023-05-24T06:18:03.894Z,54.93
2023-05-24T06:19:06.446Z,54.58
2023-05-24T06:20:03.849Z,54.72
2023-05-24T06:21:03.754Z,54.77
2023-05-24T06:22:03.811Z,55.08
2023-05-24T06:23:03.681Z,54.90
2023-05-24T06:24:03.609Z,55.15
2023-05-24T06:25:03.570Z,54.97
2023-05-24T06:26:03.540Z,54.05
2023-05-24T06:27:05.468Z,52.98
2023-05-24T06:28:03.430Z,52.25
2023-05-24T06:29:03.469Z,52.01
2023-05-24T06:30:03.447Z,52.11
2023-05-24T06:31:03.422Z,51.49
2023-05-24T06:32:03.282Z,51.55
2023-05-24T06:33:03.278Z,51.53
2023-05-24T06:34:04.398Z,51.63
2023-05-24T06:35:03.874Z,52.05
2023-05-24T06:36:03.266Z,51.68
2023-05-24T06:37:03.265Z,51.48
2023-05-24T06:38:03.271Z,51.57
2023-05-24T06:39:03.283Z,51.56
2023-05-24T06:40:03.262Z,51.47
2023-05-24T06:41:03.280Z,51.57
2023-05-24T06:42:03.277Z,51.39
2023-05-24T06:43:03.301Z,51.33
2023-05-24T06:44:03.286Z,51.41
2023-05-24T06:45:03.357Z,51.46
2023-05-24T06:46:03.276Z,51.31
2023-05-24T06:47:03.316Z,51.21
2023-05-24T06:48:03.377Z,51.30
2023-05-24T06:49:03.432Z,51.23
2023-05-24T06:50:03.243Z,51.37
2023-05-24T06:51:03.236Z,51.52
2023-05-24T06:52:03.222Z,51.60
2023-05-24T06:53:03.188Z,51.53
2023-05-24T06:54:03.157Z,51.17
2023-05-24T06:55:03.199Z,51.11
2023-05-24T06:56:03.962Z,51.21
2023-05-24T06:57:03.090Z,51.49
2023-05-24T06:58:03.123Z,51.33
2023-05-24T06:59:03.052Z,51.24
2023-05-24T07:00:03.068Z,51.19
2023-05-24T07:01:03.031Z,50.96
2023-05-24T07:02:04.211Z,51.23
2023-05-24T07:03:03.029Z,51.51
2023-05-24T07:04:02.966Z,51.47
2023-05-24T07:05:03.029Z,51.70
2023-05-24T07:06:02.903Z,51.83
2023-05-24T07:07:02.884Z,52.17
2023-05-24T07:08:03.117Z,52.00
2023-05-24T07:09:02.919Z,52.06
2023-05-24T07:10:03.031Z,52.06
2023-05-24T07:11:02.965Z,52.30
2023-05-24T07:12:02.961Z,52.68
2023-05-24T07:13:03.019Z,52.57
2023-05-24T07:14:02.968Z,52.65
2023-05-24T07:15:02.976Z,52.89
2023-05-24T07:16:03.036Z,52.79
2023-05-24T07:17:03.070Z,52.72
2023-05-24T07:18:03.054Z,52.98
2023-05-24T07:19:04.837Z,52.79
2023-05-24T07:20:03.064Z,52.57
2023-05-24T07:21:03.037Z,53.07
2023-05-24T07:22:03.134Z,51.21
2023-05-24T07:23:03.031Z,49.92
2023-05-24T07:24:03.047Z,49.72
2023-05-24T07:25:03.034Z,49.50
2023-05-24T07:26:03.087Z,49.75
2023-05-24T07:27:03.169Z,49.68
2023-05-24T07:28:03.087Z,49.82
2023-05-24T07:29:03.126Z,49.97
2023-05-24T07:30:03.123Z,50.11
2023-05-24T07:31:03.118Z,50.24
2023-05-24T07:32:03.355Z,50.22
2023-05-24T07:33:03.168Z,50.18
2023-05-24T07:34:03.799Z,50.15
2023-05-24T07:35:03.162Z,50.02
2023-05-24T07:36:03.169Z,49.81
2023-05-24T07:37:04.719Z,49.74
2023-05-24T07:38:03.113Z,49.65
2023-05-24T07:39:03.055Z,49.69
2023-05-24T07:40:03.047Z,49.41
2023-05-24T07:41:02.990Z,49.61
2023-05-24T07:42:02.972Z,49.28
2023-05-24T07:43:04.019Z,49.40
2023-05-24T07:44:03.032Z,49.29
2023-05-24T07:45:02.859Z,49.28
2023-05-24T07:46:03.432Z,49.15
2023-05-24T07:47:02.788Z,49.34
2023-05-24T07:48:02.795Z,49.68
2023-05-24T07:49:02.849Z,49.74
2023-05-24T07:50:02.772Z,49.92
2023-05-24T07:51:02.739Z,49.79
2023-05-24T07:52:02.695Z,50.21
2023-05-24T07:53:03.734Z,50.44
2023-05-24T07:54:02.661Z,50.35
2023-05-24T07:55:02.682Z,50.23
2023-05-24T07:56:02.690Z,50.45
2023-05-24T07:57:06.073Z,50.32
2023-05-24T07:58:02.645Z,50.64
2023-05-24T07:59:03.375Z,50.54
2023-05-24T08:00:02.549Z,50.74
2023-05-24T08:01:02.664Z,50.73
2023-05-24T08:02:02.592Z,50.75
2023-05-24T08:03:02.576Z,50.83
2023-05-24T08:04:02.432Z,50.89
2023-05-24T08:05:02.300Z,51.00
2023-05-24T08:06:02.905Z,51.16
2023-05-24T08:07:02.243Z,51.15
2023-05-24T08:08:02.139Z,51.56
2023-05-24T08:09:02.378Z,51.36
2023-05-24T08:10:02.035Z,51.71
2023-05-24T08:11:02.096Z,51.81
2023-05-24T08:12:03.094Z,51.24
2023-05-24T08:13:02.244Z,50.55
2023-05-24T08:14:02.116Z,49.58
2023-05-24T08:15:01.918Z,48.98
2023-05-24T08:16:01.939Z,48.90
2023-05-24T08:17:01.907Z,48.38
2023-05-24T08:18:01.921Z,47.92
2023-05-24T08:19:01.978Z,48.12
2023-05-24T08:20:02.029Z,48.18
2023-05-24T08:21:01.857Z,48.14
2023-05-24T08:22:01.830Z,48.38
2023-05-24T08:23:02.401Z,48.45
2023-05-24T08:24:01.826Z,48.55
2023-05-24T08:25:01.850Z,49.11
2023-05-24T08:26:01.807Z,49.39
2023-05-24T08:27:01.856Z,49.59
2023-05-24T08:28:02.007Z,50.22
2023-05-24T08:29:01.812Z,50.63
2023-05-24T08:30:01.768Z,50.48
2023-05-24T08:31:01.833Z,50.43
2023-05-24T08:32:01.860Z,50.59
2023-05-24T08:33:01.729Z,50.71
2023-05-24T08:34:01.700Z,50.73
2023-05-24T08:35:11.063Z,50.66
2023-05-24T08:36:02.625Z,50.78
2023-05-24T08:37:01.569Z,50.67
2023-05-24T08:38:02.463Z,50.78
2023-05-24T08:39:01.496Z,50.89
2023-05-24T08:40:01.725Z,50.85
2023-05-24T08:41:01.386Z,50.90
2023-05-24T08:42:09.223Z,50.88
2023-05-24T08:43:02.253Z,51.18
2023-05-24T08:44:01.408Z,51.01
2023-05-24T08:45:01.133Z,51.08
2023-05-24T08:46:01.105Z,51.18
2023-05-24T08:47:01.027Z,51.20
2023-05-24T08:48:01.072Z,51.34
2023-05-24T08:49:00.976Z,51.39
2023-05-24T08:50:00.868Z,51.46
2023-05-24T08:51:00.796Z,51.44
2023-05-24T08:52:00.734Z,51.63
2023-05-24T08:53:00.687Z,51.62
2023-05-24T08:54:00.677Z,51.65
2023-05-24T08:55:00.669Z,51.86
2023-05-24T08:56:01.139Z,51.90
2023-05-24T08:57:00.896Z,51.89
2023-05-24T08:58:00.619Z,51.90
2023-05-24T08:59:00.652Z,51.98
2023-05-24T09:00:00.576Z,52.04
2023-05-24T09:01:00.604Z,52.14
2023-05-24T09:02:00.576Z,52.19
2023-05-24T09:03:00.567Z,52.23
2023-05-24T09:04:00.588Z,52.39
2023-05-24T09:05:00.527Z,52.56
2023-05-24T09:06:00.478Z,52.49
2023-05-24T09:07:00.464Z,52.65
2023-05-24T09:08:00.436Z,52.76
2023-05-24T09:09:00.418Z,52.97
2023-05-24T09:10:00.427Z,53.26
2023-05-24T09:11:00.771Z,53.26
2023-05-24T09:12:00.365Z,53.58
2023-05-24T09:13:00.371Z,53.43
2023-05-24T09:14:00.867Z,53.68
2023-05-24T09:15:00.400Z,53.58
2023-05-24T09:16:00.595Z,54.13
2023-05-24T09:17:00.222Z,54.14
2023-05-24T09:18:00.218Z,53.08
2023-05-24T09:19:00.151Z,53.30
2023-05-24T09:20:00.185Z,53.35
2023-05-24T09:20:59.989Z,53.35
2023-05-24T09:21:59.959Z,53.34
2023-05-24T09:22:59.885Z,53.32
2023-05-24T09:23:59.908Z,53.30
2023-05-24T09:24:59.850Z,53.34
2023-05-24T09:26:00.303Z,53.40
2023-05-24T09:26:59.682Z,53.41
2023-05-24T09:27:59.627Z,53.44
2023-05-24T09:28:59.695Z,53.54
2023-05-24T09:29:59.641Z,53.58
2023-05-24T09:30:59.666Z,53.62
2023-05-24T09:31:59.816Z,53.65
2023-05-24T09:32:59.713Z,53.69
2023-05-24T09:33:59.674Z,53.71
2023-05-24T09:34:59.625Z,53.75
2023-05-24T09:35:59.598Z,53.83
2023-05-24T09:36:59.675Z,53.83
2023-05-24T09:37:59.604Z,53.82
2023-05-24T09:38:59.612Z,53.90
2023-05-24T09:39:59.681Z,53.93
2023-05-24T09:40:59.619Z,53.89
2023-05-24T09:41:59.599Z,53.89
2023-05-24T09:42:59.623Z,53.92
2023-05-24T09:43:59.590Z,53.92
2023-05-24T09:45:00.546Z,53.90
2023-05-24T09:45:59.502Z,53.89
2023-05-24T09:46:59.480Z,53.89
2023-05-24T09:47:59.531Z,53.95
2023-05-24T09:48:59.392Z,53.97
2023-05-24T09:49:59.333Z,54.00
2023-05-24T09:50:59.304Z,54.05
2023-05-24T09:51:59.441Z,54.07
2023-05-24T09:52:59.219Z,54.09
2023-05-24T09:53:59.147Z,54.09
2023-05-24T09:54:59.180Z,54.09
2023-05-24T09:55:59.109Z,54.12
2023-05-24T09:56:59.111Z,54.12
2023-05-24T09:57:59.099Z,54.18
2023-05-24T09:58:59.098Z,54.18
2023-05-24T09:59:59.062Z,54.22
2023-05-24T10:00:59.078Z,54.15
2023-05-24T10:01:59.027Z,54.18
2023-05-24T10:02:59.127Z,54.14
2023-05-24T10:03:59.225Z,54.18
2023-05-24T10:04:59.036Z,54.16
2023-05-24T10:05:58.953Z,54.20
2023-05-24T10:06:58.936Z,54.19
2023-05-24T10:07:58.967Z,54.23
2023-05-24T10:08:58.886Z,54.25
2023-05-24T10:09:58.846Z,54.18
2023-05-24T10:10:59.373Z,54.19
2023-05-24T10:11:58.806Z,54.22
2023-05-24T10:12:58.807Z,54.17
2023-05-24T10:13:58.765Z,54.15
2023-05-24T10:14:58.749Z,54.00
2023-05-24T10:15:58.722Z,54.06
2023-05-24T10:16:58.775Z,54.12
2023-05-24T10:17:58.729Z,54.06
2023-05-24T10:18:58.689Z,54.07
2023-05-24T10:19:58.801Z,54.08
2023-05-24T10:20:58.794Z,54.09
2023-05-24T10:21:58.640Z,54.05
2023-05-24T10:22:58.602Z,54.04
2023-05-24T10:23:58.611Z,54.03
2023-05-24T10:24:58.571Z,54.06
2023-05-24T10:25:59.376Z,54.03
2023-05-24T10:26:58.528Z,54.00
2023-05-24T10:27:58.540Z,53.97
2023-05-24T10:28:58.493Z,53.92
2023-05-24T10:29:58.491Z,53.91
2023-05-24T10:30:58.517Z,53.85
2023-05-24T10:31:58.460Z,53.86
2023-05-24T10:32:58.516Z,53.80
2023-05-24T10:34:06.522Z,53.78
2023-05-24T10:34:59.365Z,53.81
2023-05-24T10:35:58.329Z,53.79
2023-05-24T10:36:58.333Z,53.76
2023-05-24T10:37:58.235Z,53.76
2023-05-24T10:38:58.249Z,53.77
2023-05-24T10:39:58.148Z,53.77
2023-05-24T10:40:58.110Z,53.76
2023-05-24T10:41:58.069Z,53.77
2023-05-24T10:42:58.035Z,53.72
2023-05-24T10:44:08.680Z,53.69
2023-05-24T10:44:58.962Z,53.71
2023-05-24T10:45:58.017Z,53.64
2023-05-24T10:46:57.890Z,53.70
2023-05-24T10:47:57.871Z,53.62
2023-05-24T10:48:57.821Z,53.60
2023-05-24T10:49:57.802Z,53.54
2023-05-24T10:50:57.711Z,53.54
2023-05-24T10:51:57.726Z,53.52
2023-05-24T10:52:57.630Z,53.50
2023-05-24T10:53:57.587Z,53.55
2023-05-24T10:55:03.763Z,53.43
2023-05-24T10:55:58.538Z,53.40
2023-05-24T10:56:57.484Z,53.32
2023-05-24T10:57:57.424Z,53.30
2023-05-24T10:58:57.392Z,53.23
2023-05-24T10:59:57.340Z,53.25
2023-05-24T11:00:57.390Z,53.32
2023-05-24T11:01:57.300Z,53.28
2023-05-24T11:02:57.308Z,53.35
2023-05-24T11:03:57.168Z,53.28
2023-05-24T11:04:57.164Z,53.33
2023-05-24T11:05:57.148Z,53.29
2023-05-24T11:06:57.075Z,53.20
2023-05-24T11:07:57.908Z,53.17
2023-05-24T11:08:56.994Z,53.19
2023-05-24T11:09:57.095Z,53.14
2023-05-24T11:10:56.928Z,53.04
2023-05-24T11:11:56.869Z,53.11
2023-05-24T11:12:56.947Z,53.06
2023-05-24T11:13:56.923Z,53.15
2023-05-24T11:14:56.841Z,53.10
2023-05-24T11:15:57.508Z,53.03
2023-05-24T11:16:56.944Z,53.01
2023-05-24T11:17:56.874Z,52.98
2023-05-24T11:18:56.784Z,53.01
2023-05-24T11:19:56.825Z,52.96
2023-05-24T11:20:56.774Z,52.95
2023-05-24T11:21:56.751Z,52.92
2023-05-24T11:22:56.753Z,52.93
2023-05-24T11:23:56.736Z,52.89
2023-05-24T11:24:56.729Z,52.96
2023-05-24T11:25:56.707Z,52.99
2023-05-24T11:26:56.701Z,52.97
2023-05-24T11:27:56.717Z,52.98
2023-05-24T11:28:56.670Z,52.98
2023-05-24T11:29:56.661Z,52.94
2023-05-24T11:30:56.660Z,52.98
2023-05-24T11:31:56.702Z,52.97
2023-05-24T11:32:56.665Z,52.92
2023-05-24T11:33:56.643Z,52.88
2023-05-24T11:34:56.737Z,52.84
2023-05-24T11:35:56.649Z,52.86
2023-05-24T11:36:56.710Z,52.82
2023-05-24T11:37:56.633Z,52.85
2023-05-24T11:38:56.631Z,52.91
2023-05-24T11:39:56.623Z,52.89
2023-05-24T11:40:56.624Z,52.82
2023-05-24T11:41:56.755Z,52.89
2023-05-24T11:42:56.611Z,52.80
2023-05-24T11:43:56.598Z,52.84
2023-05-24T11:44:56.603Z,52.87
2023-05-24T11:45:56.641Z,52.75
2023-05-24T11:46:56.578Z,52.79
2023-05-24T11:47:56.617Z,52.76
2023-05-24T11:48:56.589Z,52.73
2023-05-24T11:49:56.554Z,52.70
2023-05-24T11:50:56.575Z,52.75
2023-05-24T11:51:56.567Z,52.69
2023-05-24T11:52:56.626Z,52.72
2023-05-24T11:53:56.536Z,52.79
2023-05-24T11:54:56.543Z,52.70
2023-05-24T11:55:56.612Z,52.76
2023-05-24T11:56:56.529Z,52.71
2023-05-24T11:57:56.507Z,52.68
2023-05-24T11:58:56.525Z,52.66
2023-05-24T11:59:56.499Z,52.67
2023-05-24T12:00:56.534Z,52.64
2023-05-24T12:01:56.512Z,52.64
2023-05-24T12:02:57.262Z,52.60
2023-05-24T12:03:56.610Z,52.64
2023-05-24T12:04:56.514Z,52.71
2023-05-24T12:05:56.472Z,52.65
2023-05-24T12:06:56.492Z,52.64
2023-05-24T12:07:56.488Z,52.66
2023-05-24T12:08:56.497Z,52.60
2023-05-24T12:09:56.454Z,52.61
2023-05-24T12:10:56.467Z,52.57
2023-05-24T12:11:56.485Z,52.57
2023-05-24T12:12:56.471Z,52.52
2023-05-24T12:13:56.451Z,52.51
2023-05-24T12:14:56.465Z,52.52
2023-05-24T12:15:57.037Z,52.53
2023-05-24T12:16:56.526Z,52.50
2023-05-24T12:17:56.944Z,52.49
2023-05-24T12:19:04.105Z,52.45
2023-05-24T12:19:57.449Z,52.48
2023-05-24T12:20:56.374Z,52.49
2023-05-24T12:21:56.339Z,52.43
2023-05-24T12:22:56.306Z,52.40
2023-05-24T12:23:56.247Z,52.48
2023-05-24T12:24:56.196Z,52.32
2023-05-24T12:25:56.153Z,52.16
2023-05-24T12:26:56.124Z,52.28
2023-05-24T12:27:56.076Z,52.18
2023-05-24T12:28:56.031Z,52.18
2023-05-24T12:29:56.012Z,51.95
2023-05-24T12:30:56.080Z,51.65
2023-05-24T12:31:56.047Z,51.67
2023-05-24T12:32:56.071Z,51.47
2023-05-24T12:33:56.113Z,51.88
2023-05-24T12:34:56.022Z,51.75
2023-05-24T12:35:56.065Z,51.56
2023-05-24T12:36:56.083Z,51.73
2023-05-24T12:37:56.066Z,51.95
2023-05-24T12:38:56.082Z,51.96
2023-05-24T12:39:56.094Z,51.96
2023-05-24T12:41:11.440Z,51.92
2023-05-24T12:41:57.069Z,51.92
2023-05-24T12:42:56.012Z,51.89
2023-05-24T12:43:56.008Z,51.85
2023-05-24T12:44:55.944Z,51.78
2023-05-24T12:45:55.935Z,51.82
2023-05-24T12:46:55.994Z,51.77
2023-05-24T12:47:55.914Z,51.76
2023-05-24T12:48:55.814Z,51.76
2023-05-24T12:49:56.435Z,51.75
2023-05-24T12:50:55.785Z,51.75
2023-05-24T12:51:55.748Z,51.77